Time;durP1;ratioP1;P1;durP2;ratioP2;P2;SDS_P1;SDS_P2;PMS_P1;PMS_P2;Temp;Humidity;BMP_temperature;BMP_pressure;BME280_temperature;BME280_humidity;BME280_pressure;Samples;Min_cycle;Max_cycle;Signal;HPM_P1;HPM_P2
2023/05/05 00:00:54;;;;;;;2.67;2.47;;;19.70;46.50;;;;;;5001756;28;20500;-74
2023/05/05 00:03:20;;;;;;;2.13;2.03;;;19.70;46.40;;;;;;5014400;28;20434;-73
2023/05/05 00:05:48;;;;;;;2.73;2.63;;;19.60;46.50;;;;;;5008137;28;20217;-71
2023/05/05 00:08:14;;;;;;;2.20;2.10;;;19.70;46.40;;;;;;5005920;28;20870;-74
2023/05/05 00:10:41;;;;;;;2.43;2.33;;;19.60;46.30;;;;;;5005016;28;20484;-73
2023/05/05 00:13:07;;;;;;;2.63;2.53;;;19.70;46.40;;;;;;5006718;28;20776;-73
2023/05/05 00:15:33;;;;;;;2.40;2.30;;;19.60;46.30;;;;;;4997990;28;20419;-71
2023/05/05 00:17:58;;;;;;;2.67;2.57;;;19.60;46.30;;;;;;5007880;28;20245;-71
2023/05/05 00:20:24;;;;;;;2.30;2.20;;;19.60;47.20;;;;;;5013047;28;20350;-72
2023/05/05 00:22:50;;;;;;;2.50;2.40;;;19.60;46.30;;;;;;5011107;28;20334;-74
2023/05/05 00:25:15;;;;;;;2.60;2.43;;;19.60;46.30;;;;;;5011572;28;20235;-71
2023/05/05 00:27:41;;;;;;;2.30;2.20;;;19.60;46.40;;;;;;5000528;28;20227;-72
2023/05/05 00:30:06;;;;;;;2.13;2.03;;;19.60;46.30;;;;;;5011357;28;20223;-74
2023/05/05 00:32:32;;;;;;;2.43;2.20;;;19.60;46.40;;;;;;5002753;28;20243;-74
2023/05/05 00:34:58;;;;;;;2.40;2.30;;;19.60;46.30;;;;;;4996647;28;20215;-73
2023/05/05 00:37:24;;;;;;;2.57;2.47;;;19.60;46.40;;;;;;5009691;28;20709;-72
2023/05/05 00:39:50;;;;;;;2.60;2.40;;;19.60;46.30;;;;;;4990331;28;20457;-71
2023/05/05 00:42:15;;;;;;;2.10;2.00;;;19.60;46.40;;;;;;5002833;28;20215;-72
2023/05/05 00:44:41;;;;;;;2.50;2.40;;;19.60;46.50;;;;;;5003882;28;20230;-73
2023/05/05 00:47:11;;;;;;;2.40;2.30;;;19.60;46.40;;;;;;4989913;28;20306;-73
2023/05/05 00:49:37;;;;;;;2.43;2.33;;;19.60;46.40;;;;;;5010976;28;20223;-76
2023/05/05 00:52:03;;;;;;;2.00;1.90;;;19.60;46.40;;;;;;5004437;28;20438;-72
2023/05/05 00:54:29;;;;;;;2.40;2.30;;;19.60;46.40;;;;;;5002602;28;20230;-72
2023/05/05 00:56:55;;;;;;;2.90;2.70;;;19.60;46.30;;;;;;5014094;28;20459;-72
2023/05/05 00:59:21;;;;;;;1.97;1.87;;;19.60;46.40;;;;;;5005111;28;20227;-72
2023/05/05 01:01:46;;;;;;;2.57;2.47;;;19.60;46.40;;;;;;5016164;28;20268;-71
2023/05/05 01:04:12;;;;;;;2.10;2.00;;;19.60;46.50;;;;;;5000910;28;20582;-72
2023/05/05 01:06:52;;;;;;;2.50;2.40;;;19.60;46.40;;;;;;5018944;28;20305;-72
2023/05/05 01:09:18;;;;;;;2.17;2.07;;;19.60;46.40;;;;;;5013276;28;21067;-72
2023/05/05 01:12:07;;;;;;;2.50;2.40;;;19.60;46.40;;;;;;5015553;28;20533;-71
2023/05/05 01:14:39;;;;;;;2.30;2.20;;;19.60;46.40;;;;;;4998764;28;20238;-71
2023/05/05 01:17:17;;;;;;;5.40;2.27;;;19.60;46.40;;;;;;5015743;28;20451;-71
2023/05/05 01:19:52;;;;;;;2.60;2.50;;;19.60;46.40;;;;;;5007893;28;20962;-71
2023/05/05 01:22:23;;;;;;;2.70;2.60;;;19.60;46.50;;;;;;5010500;28;20443;-72
2023/05/05 01:25:07;;;;;;;2.20;2.10;;;19.60;46.50;;;;;;5014327;28;20482;-72
2023/05/05 01:27:54;;;;;;;2.40;2.20;;;19.60;46.50;;;;;;5014346;28;20508;-72
2023/05/05 01:30:41;;;;;;;2.30;2.20;;;19.60;46.50;;;;;;5005752;28;20448;-71
2023/05/05 01:33:11;;;;;;;2.40;2.30;;;19.60;46.60;;;;;;5001859;28;20435;-73
2023/05/05 01:35:45;;;;;;;2.43;2.33;;;19.60;46.50;;;;;;4995871;28;20936;-75
2023/05/05 01:38:15;;;;;;;2.70;2.50;;;19.60;46.50;;;;;;5006754;28;20458;-72
2023/05/05 01:40:47;;;;;;;2.13;2.03;;;19.60;46.60;;;;;;5006795;28;20575;-72
2023/05/05 01:43:16;;;;;;;2.43;2.33;;;19.60;46.60;;;;;;5013902;28;20426;-72
2023/05/05 01:45:43;;;;;;;2.30;2.20;;;19.60;46.60;;;;;;5009225;28;20559;-75
2023/05/05 01:48:11;;;;;;;2.43;2.23;;;19.60;46.60;;;;;;5003839;28;23003;-71
2023/05/05 01:50:40;;;;;;;2.37;2.27;;;19.60;46.50;;;;;;5013239;28;20456;-72
2023/05/05 01:53:08;;;;;;;2.00;1.90;;;19.60;46.50;;;;;;5013452;28;20450;-74
2023/05/05 01:55:35;;;;;;;2.40;2.30;;;19.60;46.60;;;;;;5019381;28;20443;-71
2023/05/05 01:58:03;;;;;;;2.20;2.10;;;19.60;46.60;;;;;;5000439;28;20508;-71
2023/05/05 02:00:30;;;;;;;2.37;2.27;;;19.60;46.60;;;;;;5008655;28;20410;-71
2023/05/05 02:02:58;;;;;;;2.23;2.13;;;19.60;46.60;;;;;;5009685;28;21432;-72
2023/05/05 02:05:25;;;;;;;2.00;1.90;;;19.60;46.60;;;;;;5016236;28;21019;-71
2023/05/05 02:07:55;;;;;;;2.30;2.10;;;19.60;46.60;;;;;;5004429;28;20983;-73
2023/05/05 02:10:22;;;;;;;2.20;2.10;;;19.60;46.60;;;;;;4989559;28;20450;-71
2023/05/05 02:12:49;;;;;;;1.90;1.80;;;19.60;46.60;;;;;;5008253;28;20499;-73
2023/05/05 02:15:15;;;;;;;2.30;2.20;;;19.60;46.70;;;;;;5001986;28;21260;-72
2023/05/05 02:17:42;;;;;;;2.30;2.20;;;19.60;46.70;;;;;;4994858;28;20434;-72
2023/05/05 02:20:11;;;;;;;2.20;2.10;;;19.60;46.70;;;;;;5013631;28;20440;-72
2023/05/05 02:22:37;;;;;;;2.03;1.93;;;19.60;46.70;;;;;;5012585;28;20430;-76
2023/05/05 02:25:03;;;;;;;2.40;2.30;;;19.60;46.70;;;;;;4995630;28;20451;-72
2023/05/05 02:27:32;;;;;;;2.20;2.10;;;19.60;46.70;;;;;;5004072;28;20582;-72
2023/05/05 02:30:03;;;;;;;2.30;2.20;;;19.60;46.70;;;;;;5013846;28;20460;-72
2023/05/05 02:32:45;;;;;;;2.03;1.93;;;19.60;46.70;;;;;;5004750;28;20446;-71
2023/05/05 02:35:26;;;;;;;2.20;2.10;;;19.60;46.70;;;;;;5012605;28;20435;-71
2023/05/05 02:38:01;;;;;;;2.30;2.20;;;19.60;46.70;;;;;;5007476;28;20454;-72
2023/05/05 02:40:30;;;;;;;2.13;2.03;;;19.60;46.70;;;;;;5012692;28;21353;-72
2023/05/05 02:42:58;;;;;;;2.50;2.30;;;19.60;46.80;;;;;;5006169;28;20573;-75
2023/05/05 02:45:26;;;;;;;2.03;1.93;;;19.50;46.60;;;;;;5002288;28;20526;-71
2023/05/05 02:47:52;;;;;;;2.80;2.70;;;19.60;46.80;;;;;;5005154;28;20434;-72
2023/05/05 02:50:17;;;;;;;2.57;2.47;;;19.60;46.70;;;;;;5006810;28;20830;-76
2023/05/05 02:52:43;;;;;;;2.40;2.30;;;19.60;46.80;;;;;;5007677;28;20265;-71
2023/05/05 02:55:10;;;;;;;2.50;2.40;;;19.50;46.70;;;;;;5009233;28;20298;-71
2023/05/05 02:57:50;;;;;;;2.30;2.20;;;19.60;46.80;;;;;;5012356;28;20443;-73
2023/05/05 03:00:42;;;;;;;2.50;2.40;;;19.60;46.80;;;;;;5013042;28;20460;-73
2023/05/05 03:03:29;;;;;;;2.50;2.40;;;19.50;46.60;;;;;;5011990;28;20973;-74
2023/05/05 03:06:03;;;;;;;2.30;2.20;;;19.60;46.80;;;;;;5005640;28;21083;-70
2023/05/05 03:08:42;;;;;;;2.30;2.20;;;19.60;46.80;;;;;;4994836;28;20474;-73
2023/05/05 03:11:17;;;;;;;2.70;2.50;;;19.60;46.80;;;;;;5014853;28;20824;-72
2023/05/05 03:13:44;;;;;;;2.00;1.90;;;19.50;46.70;;;;;;5007695;28;20483;-72
2023/05/05 03:16:12;;;;;;;2.17;2.07;;;19.60;46.80;;;;;;5007375;28;20432;-71
2023/05/05 03:18:41;;;;;;;2.57;2.47;;;19.50;46.70;;;;;;5004402;28;20938;-75
2023/05/05 03:21:07;;;;;;;2.53;2.43;;;19.60;46.80;;;;;;5003585;28;20422;-72
2023/05/05 03:23:34;;;;;;;2.37;2.27;;;19.50;46.80;;;;;;5010261;28;20540;-71
2023/05/05 03:26:00;;;;;;;2.70;2.60;;;19.50;46.70;;;;;;5014801;28;21036;-72
2023/05/05 03:28:25;;;;;;;2.20;2.10;;;19.50;46.70;;;;;;5009738;28;20469;-72
2023/05/05 03:30:51;;;;;;;2.17;2.07;;;19.60;46.80;;;;;;5012114;28;20278;-71
2023/05/05 03:33:17;;;;;;;2.47;2.27;;;19.60;46.90;;;;;;5006909;28;20277;-71
2023/05/05 03:35:43;;;;;;;2.43;2.33;;;19.60;46.80;;;;;;5010850;28;20532;-71
2023/05/05 03:38:08;;;;;;;2.73;2.63;;;19.60;46.90;;;;;;4990930;28;20223;-72
2023/05/05 03:40:34;;;;;;;2.57;2.47;;;19.50;46.80;;;;;;4995183;28;20313;-72
2023/05/05 03:42:59;;;;;;;3.00;2.80;;;19.60;46.90;;;;;;5010859;28;20227;-72
2023/05/05 03:45:25;;;;;;;2.40;2.30;;;19.60;46.80;;;;;;5014981;28;20693;-72
2023/05/05 03:47:50;;;;;;;2.70;2.50;;;19.60;46.90;;;;;;4991295;28;20226;-73
2023/05/05 03:50:16;;;;;;;2.30;2.20;;;19.50;46.80;;;;;;5010638;28;20231;-72
2023/05/05 03:52:42;;;;;;;2.67;2.50;;;19.60;46.90;;;;;;5012677;28;20592;-76
2023/05/05 03:55:07;;;;;;;2.70;2.60;;;19.50;46.80;;;;;;4993686;28;20229;-75
2023/05/05 03:57:33;;;;;;;2.47;2.37;;;19.50;46.80;;;;;;5011626;28;20234;-76
2023/05/05 03:59:59;;;;;;;2.70;2.60;;;19.60;46.90;;;;;;5008287;28;20279;-73
2023/05/05 04:02:25;;;;;;;2.37;2.27;;;19.60;46.80;;;;;;5008309;28;22083;-73
2023/05/05 04:04:50;;;;;;;2.40;2.30;;;19.60;46.90;;;;;;5007555;28;20447;-73
2023/05/05 04:07:16;;;;;;;2.30;2.20;;;19.50;46.80;;;;;;5002954;28;20226;-72
2023/05/05 04:09:43;;;;;;;2.33;2.23;;;19.60;46.90;;;;;;4986116;28;20742;-73
2023/05/05 04:12:12;;;;;;;2.77;2.67;;;19.60;46.90;;;;;;5003866;28;20748;-74
2023/05/05 04:14:38;;;;;;;2.57;2.47;;;19.60;46.90;;;;;;4998351;28;21337;-74
2023/05/05 04:17:05;;;;;;;2.37;2.27;;;19.50;46.80;;;;;;4993063;28;20431;-74
2023/05/05 04:19:33;;;;;;;2.47;2.37;;;19.60;46.90;;;;;;4998502;28;20677;-73
2023/05/05 04:21:59;;;;;;;2.30;2.20;;;19.60;46.80;;;;;;5008598;28;20824;-73
2023/05/05 04:24:25;;;;;;;2.53;2.43;;;19.50;46.80;;;;;;4997639;28;20474;-74
2023/05/05 04:26:52;;;;;;;2.30;2.20;;;19.60;46.90;;;;;;4978307;28;20439;-72
2023/05/05 04:29:17;;;;;;;2.50;2.40;;;19.60;46.80;;;;;;4997214;28;20352;-75
2023/05/05 04:31:43;;;;;;;2.80;2.67;;;19.50;46.80;;;;;;5002038;28;21173;-71
2023/05/05 04:34:09;;;;;;;2.60;2.50;;;19.60;46.90;;;;;;5004817;28;20224;-72
2023/05/05 04:36:34;;;;;;;2.50;2.40;;;19.60;46.90;;;;;;5010321;28;20550;-72
2023/05/05 04:39:00;;;;;;;2.63;2.53;;;19.50;46.80;;;;;;4998328;28;20314;-76
2023/05/05 04:41:26;;;;;;;2.43;2.33;;;19.60;46.90;;;;;;5007661;28;20628;-73
2023/05/05 04:43:54;;;;;;;2.30;2.20;;;19.60;46.90;;;;;;4997299;28;20253;-72
2023/05/05 04:46:20;;;;;;;3.17;2.97;;;19.60;46.90;;;;;;5006435;28;20674;-74
2023/05/05 04:48:46;;;;;;;2.97;2.77;;;19.60;46.80;;;;;;4998987;28;20445;-74
2023/05/05 04:51:12;;;;;;;2.73;2.60;;;19.60;46.80;;;;;;4997251;28;20525;-73
2023/05/05 04:53:37;;;;;;;2.60;2.50;;;19.60;46.90;;;;;;5002777;28;20219;-74
2023/05/05 04:56:03;;;;;;;2.90;2.70;;;19.60;46.90;;;;;;5011919;28;20227;-73
2023/05/05 04:58:29;;;;;;;2.37;2.27;;;19.60;46.80;;;;;;5008506;28;20242;-73
2023/05/05 05:00:55;;;;;;;2.50;2.40;;;19.60;46.80;;;;;;5007719;28;20227;-73
2023/05/05 05:03:21;;;;;;;2.40;2.30;;;19.60;46.80;;;;;;4996377;28;20471;-71
2023/05/05 05:05:46;;;;;;;2.53;2.43;;;19.60;46.80;;;;;;5012350;28;20227;-73
2023/05/05 05:08:14;;;;;;;2.33;2.23;;;19.60;46.80;;;;;;5017051;28;20215;-70
2023/05/05 05:10:39;;;;;;;2.37;2.27;;;19.60;46.80;;;;;;5013036;28;20227;-73
2023/05/05 05:13:05;;;;;;;2.60;2.50;;;19.60;46.80;;;;;;5002286;28;20516;-73
2023/05/05 05:15:30;;;;;;;3.00;2.90;;;19.60;46.80;;;;;;4999663;28;20227;-74
2023/05/05 05:17:56;;;;;;;2.70;2.60;;;19.60;46.70;;;;;;5003092;28;20701;-73
2023/05/05 05:20:21;;;;;;;2.63;2.53;;;19.60;46.80;;;;;;5010420;28;20227;-73
2023/05/05 05:22:47;;;;;;;2.60;2.40;;;19.60;46.70;;;;;;5007439;28;20216;-73
2023/05/05 05:25:13;;;;;;;2.83;2.63;;;19.60;46.80;;;;;;5003631;28;20921;-74
2023/05/05 05:27:38;;;;;;;2.80;2.60;;;19.60;46.80;;;;;;5001670;28;20229;-73
2023/05/05 05:30:04;;;;;;;2.60;2.50;;;19.60;46.80;;;;;;5008855;28;20227;-73
2023/05/05 05:32:29;;;;;;;2.33;2.23;;;19.60;46.80;;;;;;5014797;28;20249;-73
2023/05/05 05:34:55;;;;;;;2.47;2.27;;;19.70;46.80;;;;;;5004938;28;20562;-73
2023/05/05 05:37:20;;;;;;;2.57;2.47;;;19.60;46.80;;;;;;5011203;28;20223;-73
2023/05/05 05:39:55;;;;;;;2.10;2.00;;;19.60;46.80;;;;;;5010251;28;20215;-73
2023/05/05 05:42:21;;;;;;;2.80;2.70;;;19.60;46.80;;;;;;5016873;28;20306;-73
2023/05/05 05:44:46;;;;;;;5.87;2.57;;;19.60;46.80;;;;;;4999672;28;20985;-74
2023/05/05 05:47:12;;;;;;;2.97;2.77;;;19.70;46.90;;;;;;5012220;28;20229;-73
2023/05/05 05:49:37;;;;;;;2.73;2.40;;;19.60;46.80;;;;;;4991625;28;20408;-74
2023/05/05 05:52:03;;;;;;;2.50;2.40;;;19.60;46.80;;;;;;5003193;28;20222;-73
2023/05/05 05:54:29;;;;;;;2.80;2.70;;;19.70;46.90;;;;;;5006082;28;20223;-73
2023/05/05 05:56:54;;;;;;;2.83;2.73;;;19.60;46.80;;;;;;5010577;28;20351;-73
2023/05/05 05:59:20;;;;;;;2.87;2.77;;;19.70;46.80;;;;;;5013583;28;20226;-73
2023/05/05 06:01:45;;;;;;;3.00;2.80;;;19.60;46.80;;;;;;5008271;28;20262;-73
2023/05/05 06:04:12;;;;;;;2.47;2.37;;;19.70;46.80;;;;;;5004694;28;21942;-73
2023/05/05 06:06:37;;;;;;;2.50;2.40;;;19.70;46.90;;;;;;4987054;28;20310;-73
2023/05/05 06:09:02;;;;;;;2.50;2.37;;;19.70;46.80;;;;;;5009570;28;20504;-73
2023/05/05 06:11:28;;;;;;;2.40;2.30;;;19.70;46.80;;;;;;5010478;28;20231;-73
2023/05/05 06:13:53;;;;;;;2.50;2.40;;;19.70;46.80;;;;;;5002116;28;20670;-73
2023/05/05 06:16:19;;;;;;;2.40;2.30;;;19.70;46.90;;;;;;5011743;28;20310;-73
2023/05/05 06:18:45;;;;;;;2.80;2.70;;;19.70;46.90;;;;;;5013943;28;20224;-73
2023/05/05 06:21:12;;;;;;;2.57;2.47;;;19.70;46.80;;;;;;4996240;28;20212;-73
2023/05/05 06:23:38;;;;;;;2.53;2.43;;;19.70;46.80;;;;;;5006052;28;20466;-73
2023/05/05 06:26:03;;;;;;;2.67;2.57;;;19.70;46.80;;;;;;5006904;28;20481;-73
2023/05/05 06:28:29;;;;;;;2.77;2.67;;;19.70;46.90;;;;;;5007147;28;20272;-73
2023/05/05 06:30:55;;;;;;;2.10;2.00;;;19.70;46.90;;;;;;4989482;28;20238;-72
2023/05/05 06:33:20;;;;;;;2.60;2.50;;;19.70;46.80;;;;;;5003309;28;20225;-73
2023/05/05 06:35:48;;;;;;;2.70;2.60;;;19.70;46.90;;;;;;5013113;28;20452;-73
2023/05/05 06:38:14;;;;;;;2.50;2.40;;;19.70;46.90;;;;;;5000035;28;20673;-73
2023/05/05 06:40:39;;;;;;;2.80;2.60;;;19.70;46.80;;;;;;5014771;28;20470;-73
2023/05/05 06:43:05;;;;;;;2.43;2.33;;;19.70;46.80;;;;;;4997449;28;20545;-73
2023/05/05 06:45:30;;;;;;;3.00;2.80;;;19.70;46.80;;;;;;5009169;28;20230;-73
2023/05/05 06:47:56;;;;;;;2.57;2.47;;;19.70;46.80;;;;;;5011245;28;20581;-73
2023/05/05 06:50:21;;;;;;;2.60;2.50;;;19.70;46.80;;;;;;5012555;28;20733;-72
2023/05/05 06:52:47;;;;;;;2.87;2.67;;;19.70;46.80;;;;;;4996464;28;20218;-73
2023/05/05 06:55:12;;;;;;;2.93;2.73;;;19.70;47.00;;;;;;5015771;28;20223;-73
2023/05/05 06:57:38;;;;;;;2.50;2.40;;;19.70;46.80;;;;;;4995569;28;21045;-73
2023/05/05 07:00:05;;;;;;;2.70;2.60;;;19.70;46.80;;;;;;5004943;28;20818;-73
2023/05/05 07:02:32;;;;;;;2.80;2.60;;;19.70;47.00;;;;;;5011468;28;20228;-73
2023/05/05 07:04:57;;;;;;;2.70;2.60;;;19.70;46.90;;;;;;5011950;28;20997;-73
2023/05/05 07:07:23;;;;;;;2.90;2.70;;;19.70;46.90;;;;;;4991976;28;20570;-73
2023/05/05 07:09:48;;;;;;;2.90;2.30;;;19.70;47.60;;;;;;5007016;28;20223;-73
2023/05/05 07:12:14;;;;;;;2.70;2.60;;;19.70;46.90;;;;;;5010578;28;20215;-73
2023/05/05 07:14:39;;;;;;;2.57;2.47;;;19.70;46.90;;;;;;5010010;28;20287;-73
2023/05/05 07:17:05;;;;;;;2.53;2.43;;;19.70;46.80;;;;;;5010312;28;20219;-73
2023/05/05 07:19:31;;;;;;;2.67;2.50;;;19.70;46.90;;;;;;5009635;28;20249;-73
2023/05/05 07:21:56;;;;;;;2.40;2.30;;;19.70;46.90;;;;;;5014567;28;20238;-72
2023/05/05 07:24:23;;;;;;;2.60;2.50;;;19.80;47.00;;;;;;5001255;28;20597;-73
2023/05/05 07:26:48;;;;;;;2.10;2.00;;;19.70;47.60;;;;;;5010157;28;20238;-73
2023/05/05 07:29:14;;;;;;;2.40;2.30;;;19.80;46.90;;;;;;4996146;28;20476;-73
2023/05/05 07:31:40;;;;;;;2.67;2.57;;;19.70;46.80;;;;;;5017535;28;20231;-73
2023/05/05 07:34:05;;;;;;;2.67;2.57;;;19.80;46.90;;;;;;5002700;28;20223;-73
2023/05/05 07:36:31;;;;;;;2.60;2.50;;;19.80;46.90;;;;;;5009622;28;20250;-73
2023/05/05 07:38:57;;;;;;;2.40;2.30;;;19.70;46.80;;;;;;5010060;28;20224;-73
2023/05/05 07:41:22;;;;;;;2.70;2.60;;;19.80;46.90;;;;;;5016324;28;20493;-73
2023/05/05 07:43:48;;;;;;;2.80;2.60;;;19.80;46.90;;;;;;5006350;28;20241;-73
2023/05/05 07:46:13;;;;;;;2.77;2.67;;;19.80;47.70;;;;;;5007968;28;20212;-73
2023/05/05 07:48:40;;;;;;;2.50;2.40;;;19.80;46.90;;;;;;5004260;28;20282;-73
2023/05/05 07:51:05;;;;;;;2.80;2.70;;;19.80;46.90;;;;;;5017168;28;20739;-73
2023/05/05 07:53:31;;;;;;;2.73;2.53;;;19.80;46.90;;;;;;5006868;28;20442;-73
2023/05/05 07:55:56;;;;;;;2.80;2.70;;;19.80;46.90;;;;;;5010812;28;20212;-73
2023/05/05 07:58:22;;;;;;;2.20;2.10;;;19.80;47.00;;;;;;5008651;28;20575;-73
2023/05/05 08:00:49;;;;;;;2.50;2.30;;;19.80;46.90;;;;;;5004608;28;20219;-72
2023/05/05 08:03:14;;;;;;;2.63;2.50;;;19.80;46.90;;;;;;5008236;28;20268;-73
2023/05/05 08:05:40;;;;;;;2.70;2.50;;;19.80;47.00;;;;;;5006726;28;20837;-72
2023/05/05 08:08:06;;;;;;;2.47;2.37;;;19.80;47.00;;;;;;5009749;28;20273;-72
2023/05/05 08:10:31;;;;;;;2.50;2.40;;;19.80;46.90;;;;;;5012721;28;20690;-72
2023/05/05 08:12:57;;;;;;;2.60;2.50;;;19.80;47.00;;;;;;5011483;28;20323;-72
2023/05/05 08:15:23;;;;;;;2.70;2.60;;;19.80;47.00;;;;;;5011031;28;20309;-73
2023/05/05 08:17:50;;;;;;;2.57;2.47;;;19.80;46.90;;;;;;5002851;28;20216;-73
2023/05/05 08:20:17;;;;;;;2.47;2.37;;;19.80;46.90;;;;;;5006968;28;20449;-73
2023/05/05 08:22:43;;;;;;;2.80;2.70;;;19.80;46.90;;;;;;5006011;28;20781;-72
2023/05/05 08:25:12;;;;;;;2.53;2.43;;;19.80;46.90;;;;;;5016692;28;20463;-72
2023/05/05 08:27:39;;;;;;;2.30;2.20;;;19.80;47.00;;;;;;5013727;28;21035;-72
2023/05/05 08:30:06;;;;;;;2.60;2.50;;;19.80;47.00;;;;;;5008236;28;21185;-72
2023/05/05 08:32:32;;;;;;;2.53;2.43;;;19.80;47.00;;;;;;5004746;28;20435;-73
2023/05/05 08:34:57;;;;;;;2.33;2.23;;;19.80;47.00;;;;;;5015811;28;20441;-72
2023/05/05 08:37:23;;;;;;;2.17;2.07;;;19.80;47.00;;;;;;5010304;28;20269;-73
2023/05/05 08:39:49;;;;;;;2.40;2.30;;;19.80;46.90;;;;;;5011945;28;20247;-72
2023/05/05 08:42:14;;;;;;;2.50;2.27;;;19.80;47.00;;;;;;5004529;28;20234;-72
2023/05/05 08:44:40;;;;;;;3.20;3.10;;;19.80;47.00;;;;;;5006752;28;20289;-72
2023/05/05 08:47:09;;;;;;;2.17;2.07;;;19.80;47.00;;;;;;5017975;28;20215;-72
2023/05/05 08:49:44;;;;;;;2.57;2.37;;;19.80;47.00;;;;;;5020138;28;20269;-72
2023/05/05 08:52:12;;;;;;;2.50;2.40;;;19.80;47.00;;;;;;4999782;28;21197;-72
2023/05/05 08:54:43;;;;;;;2.27;2.17;;;19.80;46.90;;;;;;5016378;28;20826;-73
2023/05/05 08:57:09;;;;;;;2.67;2.57;;;19.80;47.00;;;;;;5007511;28;20442;-72
2023/05/05 08:59:37;;;;;;;2.40;2.30;;;19.90;47.00;;;;;;5012845;28;20451;-72
2023/05/05 09:02:03;;;;;;;2.83;2.63;;;19.80;46.90;;;;;;4999346;28;20464;-73
2023/05/05 09:04:29;;;;;;;2.47;2.37;;;19.80;46.90;;;;;;5007035;28;20496;-72
2023/05/05 09:06:59;;;;;;;2.27;2.17;;;19.80;46.90;;;;;;5013161;28;20496;-73
2023/05/05 09:09:26;;;;;;;2.17;2.07;;;19.80;47.00;;;;;;5015790;28;20456;-73
2023/05/05 09:11:53;;;;;;;2.10;2.00;;;19.80;47.80;;;;;;5001669;28;20457;-72
2023/05/05 09:14:19;;;;;;;2.20;2.10;;;19.80;47.00;;;;;;5010999;28;21309;-72
2023/05/05 09:16:45;;;;;;;2.47;2.37;;;19.90;47.00;;;;;;5001485;28;20433;-72
2023/05/05 09:19:10;;;;;;;2.20;2.10;;;19.80;46.90;;;;;;5005399;28;20622;-73
2023/05/05 09:21:46;;;;;;;2.07;1.97;;;19.80;47.00;;;;;;5011989;28;20254;-72
2023/05/05 09:24:14;;;;;;;2.30;2.20;;;19.80;46.90;;;;;;5013316;28;20234;-72
2023/05/05 09:26:42;;;;;;;2.60;2.50;;;19.90;47.10;;;;;;5018505;28;20427;-72
2023/05/05 09:29:08;;;;;;;2.00;1.90;;;19.80;47.00;;;;;;5009452;28;20430;-73
2023/05/05 09:31:36;;;;;;;2.13;2.03;;;19.90;47.10;;;;;;5010448;28;20855;-72
2023/05/05 09:34:13;;;;;;;1.80;1.70;;;19.80;46.90;;;;;;5005379;28;20224;-72
2023/05/05 09:36:46;;;;;;;2.47;2.37;;;19.80;46.90;;;;;;5012957;28;20450;-72
2023/05/05 09:39:19;;;;;;;2.23;2.13;;;19.80;47.00;;;;;;5005823;28;20499;-72
2023/05/05 09:41:45;;;;;;;2.27;2.17;;;19.80;47.00;;;;;;4997242;28;21033;-72
2023/05/05 09:44:14;;;;;;;2.10;2.00;;;19.90;47.10;;;;;;5003639;28;20444;-72
2023/05/05 09:46:51;;;;;;;1.90;1.80;;;19.90;47.90;;;;;;5012736;28;21917;-72
2023/05/05 09:49:21;;;;;;;2.10;2.00;;;19.80;47.00;;;;;;4988328;28;20461;-72
2023/05/05 09:51:48;;;;;;;2.00;1.90;;;19.80;47.00;;;;;;5016392;28;20439;-72
2023/05/05 09:54:27;;;;;;;2.17;2.07;;;19.90;47.10;;;;;;5013207;28;20539;-72
2023/05/05 09:56:55;;;;;;;2.20;2.00;;;19.80;47.00;;;;;;5012907;28;20468;-72
2023/05/05 09:59:21;;;;;;;2.07;1.97;;;19.90;47.10;;;;;;5015433;28;20467;-72
2023/05/05 10:01:47;;;;;;;2.20;2.10;;;19.90;47.20;;;;;;5014640;28;20452;-72
2023/05/05 10:04:30;;;;;;;2.10;2.00;;;19.90;47.10;;;;;;5001351;28;20485;-72
2023/05/05 10:06:57;;;;;;;1.70;1.60;;;19.80;47.00;;;;;;4998963;28;20454;-73
2023/05/05 10:09:23;;;;;;;2.33;2.23;;;19.80;47.00;;;;;;5004413;28;20921;-72
2023/05/05 10:11:50;;;;;;;1.80;1.70;;;19.90;47.10;;;;;;5004445;28;20465;-72
2023/05/05 10:14:16;;;;;;;2.23;2.13;;;19.80;47.00;;;;;;5003348;28;20461;-73
2023/05/05 10:16:50;;;;;;;1.83;1.73;;;19.90;47.10;;;;;;5003186;28;20569;-72
2023/05/05 10:19:19;;;;;;;2.10;2.00;;;19.80;47.00;;;;;;5010513;28;20933;-73
2023/05/05 10:21:53;;;;;;;2.00;1.90;;;19.80;47.00;;;;;;5009734;28;20468;-73
2023/05/05 10:24:37;;;;;;;2.10;2.00;;;19.80;47.00;;;;;;5013493;28;20498;-73
2023/05/05 10:27:12;;;;;;;1.70;1.60;;;19.80;47.00;;;;;;5005267;28;20456;-78
2023/05/05 10:29:59;;;;;;;1.93;1.83;;;19.90;47.10;;;;;;5013367;28;21105;-75
2023/05/05 10:32:30;;;;;;;1.90;1.80;;;19.90;47.10;;;;;;4993596;28;20446;-74
2023/05/05 10:35:01;;;;;;;1.83;1.70;;;19.80;47.00;;;;;;4990022;28;20435;-74
2023/05/05 10:37:28;;;;;;;1.90;1.80;;;19.90;47.10;;;;;;4997501;28;20804;-74
2023/05/05 10:39:55;;;;;;;2.00;1.90;;;19.90;47.10;;;;;;5010252;28;20523;-74
2023/05/05 10:42:22;;;;;;;2.00;1.90;;;19.90;47.00;;;;;;4989852;28;20474;-74
2023/05/05 10:44:48;;;;;;;1.97;1.87;;;19.90;47.10;;;;;;4997908;28;20459;-74
2023/05/05 10:47:17;;;;;;;1.80;1.70;;;19.90;47.00;;;;;;4990821;28;20483;-73
2023/05/05 10:50:06;;;;;;;1.97;1.87;;;19.90;47.10;;;;;;4979715;28;20705;-74
2023/05/05 10:52:38;;;;;;;2.00;1.90;;;19.90;47.00;;;;;;5004589;28;20471;-75
2023/05/05 10:55:33;;;;;;;1.70;1.60;;;19.90;47.00;;;;;;4987372;28;20451;-74
2023/05/05 10:57:59;;;;;;;1.73;1.63;;;19.90;47.00;;;;;;4959814;28;20464;-74
2023/05/05 11:00:36;;;;;;;1.60;1.50;;;19.90;47.00;;;;;;5000590;28;20468;-74
2023/05/05 11:03:17;;;;;;;2.10;2.00;;;19.90;47.00;;;;;;5008339;28;20273;-74
2023/05/05 11:06:11;;;;;;;1.93;1.83;;;19.90;46.90;;;;;;5014256;28;20488;-74
2023/05/05 11:08:38;;;;;;;1.93;1.83;;;19.90;46.90;;;;;;5010700;28;20463;-74
2023/05/05 11:11:05;;;;;;;2.00;1.90;;;19.90;46.90;;;;;;4978630;28;20465;-76
2023/05/05 11:13:31;;;;;;;2.00;1.90;;;19.90;47.00;;;;;;5006581;28;20496;-75
2023/05/05 11:15:58;;;;;;;1.80;1.70;;;19.90;47.00;;;;;;4989709;28;20435;-74
2023/05/05 11:18:36;;;;;;;1.90;1.80;;;19.90;47.10;;;;;;5005004;28;21238;-74
2023/05/05 11:21:14;;;;;;;1.70;1.60;;;19.90;47.60;;;;;;5005900;28;20435;-74
2023/05/05 11:23:49;;;;;;;1.90;1.80;;;19.90;48.90;;;;;;4999836;28;20423;-74
2023/05/05 11:26:16;;;;;;;1.60;1.50;;;19.90;50.00;;;;;;5011226;28;20922;-74
2023/05/05 11:28:57;;;;;;;2.03;1.93;;;19.90;51.40;;;;;;5013026;28;20417;-74
2023/05/05 11:31:23;;;;;;;1.67;1.57;;;19.90;53.00;;;;;;5012644;28;20482;-74
2023/05/05 11:33:48;;;;;;;1.73;1.63;;;19.90;57.10;;;;;;5001398;28;20433;-74
2023/05/05 11:36:18;;;;;;;1.87;1.77;;;19.90;63.30;;;;;;5008049;28;20310;-74
2023/05/05 11:39:06;;;;;;;2.10;1.90;;;19.90;60.60;;;;;;4983917;28;20243;-73
2023/05/05 11:41:32;;;;;;;1.60;1.50;;;19.90;59.20;;;;;;5009885;28;21805;-73
2023/05/05 11:44:19;;;;;;;1.90;1.80;;;19.90;61.40;;;;;;4996742;28;20443;-73
2023/05/05 11:46:51;;;;;;;1.87;1.77;;;19.90;63.50;;;;;;4996499;28;20424;-74
2023/05/05 11:49:30;;;;;;;1.80;1.70;;;19.90;46.90;;;;;;4999508;28;20532;-73
2023/05/05 11:51:56;;;;;;;1.80;1.70;;;19.90;46.90;;;;;;5014112;28;20973;-72
2023/05/05 11:54:21;;;;;;;2.13;2.03;;;19.90;47.00;;;;;;5014199;28;20508;-72
2023/05/05 11:56:54;;;;;;;1.57;1.47;;;19.90;46.90;;;;;;5015082;28;20211;-73
2023/05/05 11:59:20;;;;;;;1.80;1.70;;;19.90;46.90;;;;;;5003378;28;20230;-72
2023/05/05 12:01:46;;;;;;;1.70;1.60;;;19.90;46.90;;;;;;5016764;28;20433;-72
2023/05/05 12:04:14;;;;;;;1.83;1.73;;;19.90;46.90;;;;;;5004916;28;20437;-72
2023/05/05 12:06:40;;;;;;;2.00;1.90;;;19.90;46.90;;;;;;5004079;28;21363;-72
2023/05/05 12:09:13;;;;;;;1.77;1.67;;;19.90;46.90;;;;;;5005457;28;20441;-72
2023/05/05 12:11:57;;;;;;;1.80;1.70;;;19.90;47.00;;;;;;5016210;28;21036;-72
2023/05/05 12:14:23;;;;;;;1.77;1.67;;;19.90;46.90;;;;;;5014127;28;20555;-72
2023/05/05 12:17:03;;;;;;;1.80;1.70;;;19.90;47.00;;;;;;5011891;28;20505;-72
2023/05/05 12:19:31;;;;;;;1.70;1.60;;;19.90;47.00;;;;;;5017255;28;20441;-72
2023/05/05 12:21:57;;;;;;;1.80;1.70;;;19.90;47.00;;;;;;5013762;28;20547;-78
2023/05/05 12:24:23;;;;;;;1.50;1.40;;;19.90;47.00;;;;;;4994686;28;20458;-75
2023/05/05 12:26:49;;;;;;;2.00;1.90;;;19.90;47.00;;;;;;5015567;28;20941;-74
2023/05/05 12:29:24;;;;;;;1.90;1.80;;;19.90;47.00;;;;;;5009644;28;20923;-75
2023/05/05 12:31:49;;;;;;;1.60;1.50;;;19.90;47.00;;;;;;5011521;28;20749;-74
2023/05/05 12:34:15;;;;;;;1.80;1.70;;;19.90;47.00;;;;;;5012918;28;20539;-74
2023/05/05 12:36:41;;;;;;;2.07;1.97;;;19.90;47.00;;;;;;5019833;28;20234;-74
2023/05/05 12:39:07;;;;;;;1.70;1.60;;;19.90;47.00;;;;;;5013659;28;20222;-74
2023/05/05 12:41:32;;;;;;;1.80;1.70;;;19.90;47.00;;;;;;5017887;28;20230;-74
2023/05/05 12:43:59;;;;;;;1.77;1.63;;;19.90;47.00;;;;;;5013780;28;20318;-74
2023/05/05 12:46:28;;;;;;;1.73;1.63;;;19.90;47.10;;;;;;5016634;28;20231;-73
2023/05/05 12:49:00;;;;;;;1.67;1.57;;;19.90;47.00;;;;;;5015531;28;21001;-74
2023/05/05 12:51:26;;;;;;;1.67;1.57;;;19.90;47.00;;;;;;5017976;28;20514;-74
2023/05/05 12:54:11;;;;;;;1.60;1.50;;;19.90;47.00;;;;;;5013419;28;20439;-74